Time;durP1;ratioP1;P1;durP2;ratioP2;P2;SDS_P1;SDS_P2;PMS_P1;PMS_P2;Temp;Humidity;BMP_temperature;BMP_pressure;BME280_temperature;BME280_humidity;BME280_pressure;Samples;Min_cycle;Max_cycle;Signal;HPM_P1;HPM_P2
2023/05/06 00:01:33;;;;;;;6.47;5.25;;;;;;;9.68;100.00;101649.06;5025438;28;20516;-71
2023/05/06 00:03:58;;;;;;;6.65;5.28;;;;;;;9.67;100.00;101648.22;5025449;28;20132;-72
2023/05/06 00:06:23;;;;;;;8.25;5.35;;;;;;;9.67;100.00;101644.72;5026405;28;20115;-72
2023/05/06 00:08:49;;;;;;;7.53;5.47;;;;;;;9.65;100.00;101645.63;5025546;28;20045;-72
2023/05/06 00:11:15;;;;;;;9.50;5.68;;;;;;;9.64;100.00;101643.00;5026804;28;20123;-72
2023/05/06 00:13:40;;;;;;;8.13;5.53;;;;;;;9.68;100.00;101649.06;5026038;28;20720;-72
2023/05/06 00:16:06;;;;;;;6.50;5.07;;;;;;;9.69;100.00;101653.47;5026388;28;20049;-70
2023/05/06 00:18:32;;;;;;;7.35;5.80;;;;;;;9.71;100.00;101659.59;5025703;28;20154;-71
2023/05/06 00:20:57;;;;;;;7.10;5.13;;;;;;;9.72;100.00;101650.75;5025636;28;20041;-72
2023/05/06 00:23:23;;;;;;;8.43;6.00;;;;;;;9.72;100.00;101656.91;5021900;28;20033;-72
2023/05/06 00:25:48;;;;;;;8.15;5.28;;;;;;;9.73;100.00;101652.47;5024092;28;20044;-72
2023/05/06 00:28:14;;;;;;;8.82;5.30;;;;;;;9.73;100.00;101650.69;5025155;28;20041;-72
2023/05/06 00:30:39;;;;;;;9.32;5.30;;;;;;;9.72;100.00;101648.09;5026427;28;20044;-72
2023/05/06 00:33:05;;;;;;;7.07;5.15;;;;;;;9.74;100.00;101648.91;5026553;28;20072;-72
2023/05/06 00:35:30;;;;;;;8.48;5.22;;;;;;;9.75;100.00;101648.03;5027005;28;20499;-72
2023/05/06 00:38:08;;;;;;;7.07;5.43;;;;;;;9.75;100.00;101642.72;5024853;28;20052;-72
2023/05/06 00:40:33;;;;;;;8.18;5.40;;;;;;;9.77;100.00;101646.19;5023902;28;20082;-72
2023/05/06 00:42:59;;;;;;;7.78;5.00;;;;;;;9.75;100.00;101638.28;5023863;28;20037;-72
2023/05/06 00:45:24;;;;;;;9.02;5.55;;;;;;;9.74;100.00;101641.84;5025089;28;20119;-72
2023/05/06 00:47:50;;;;;;;8.30;5.32;;;;;;;9.73;100.00;101647.19;5023960;28;20124;-72
2023/05/06 00:50:16;;;;;;;8.80;5.75;;;;;;;9.73;100.00;101636.59;5025584;28;20647;-72
2023/05/06 00:52:42;;;;;;;7.95;5.57;;;;;;;9.71;100.00;101635.78;5026289;28;20488;-71
2023/05/06 00:55:08;;;;;;;8.55;5.78;;;;;;;9.73;100.00;101639.25;5025536;28;20033;-72
2023/05/06 00:57:34;;;;;;;7.97;5.47;;;;;;;9.72;100.00;101634.88;5024501;28;20186;-72
2023/05/06 00:59:59;;;;;;;8.23;5.88;;;;;;;9.73;100.00;101631.31;5024677;28;20036;-71
2023/05/06 01:02:25;;;;;;;8.90;5.57;;;;;;;9.76;100.00;101633.88;5025884;28;20041;-71
2023/05/06 01:04:51;;;;;;;7.75;5.82;;;;;;;9.79;100.00;101636.41;5025105;28;20140;-71
2023/05/06 01:07:26;;;;;;;9.48;5.70;;;;;;;9.80;100.00;101630.22;5026526;28;20037;-71
2023/05/06 01:10:12;;;;;;;7.35;5.20;;;;;;;9.82;100.00;101635.47;5026515;28;20040;-71
2023/05/06 01:12:56;;;;;;;8.05;5.55;;;;;;;9.83;100.00;101632.78;5025824;28;20033;-71
2023/05/06 01:15:47;;;;;;;9.00;6.18;;;;;;;9.82;100.00;101631.06;5028807;28;20369;-72
2023/05/06 01:18:16;;;;;;;7.20;5.30;;;;;;;9.79;100.00;101631.13;5027506;28;20159;-72
2023/05/06 01:20:48;;;;;;;8.75;6.03;;;;;;;9.78;100.00;101639.97;5026004;28;20315;-72
2023/05/06 01:23:14;;;;;;;9.15;5.70;;;;;;;9.75;100.00;101627.72;5026669;28;20392;-72
2023/05/06 01:25:40;;;;;;;7.68;5.45;;;;;;;9.74;100.00;101622.47;5028856;28;20036;-71
2023/05/06 01:28:09;;;;;;;7.70;5.30;;;;;;;9.71;100.00;101628.75;5029218;28;20037;-73
2023/05/06 01:31:04;;;;;;;7.10;5.68;;;;;;;9.70;100.00;101626.13;5012095;28;20032;-71
2023/05/06 01:33:47;;;;;;;8.82;6.13;;;;;;;9.68;100.00;101622.63;5027386;28;20049;-71
2023/05/06 01:36:31;;;;;;;;;;;;;;;9.69;100.00;101619.09;5026679;28;20034;-71
2023/05/06 01:39:09;;;;;;;7.03;5.28;;;;;;;9.67;100.00;101613.84;5024681;28;19925;-71
2023/05/06 01:41:38;;;;;;;8.52;5.68;;;;;;;9.64;100.00;101616.56;5027876;28;20025;-71
2023/05/06 01:44:05;;;;;;;8.95;5.93;;;;;;;9.62;100.00;101611.34;5026661;28;20029;-71
2023/05/06 01:46:34;;;;;;;9.15;5.20;;;;;;;9.61;100.00;101617.56;5025265;28;20037;-72
2023/05/06 01:49:03;;;;;;;8.93;5.93;;;;;;;9.61;100.00;101617.56;5029854;28;20039;-72
2023/05/06 01:51:31;;;;;;;10.48;6.03;;;;;;;9.60;100.00;101623.72;5028804;28;20124;-71
2023/05/06 01:53:57;;;;;;;8.50;6.03;;;;;;;9.58;100.00;101617.63;5027596;28;20037;-72
2023/05/06 01:56:22;;;;;;;8.10;5.72;;;;;;;9.56;100.00;101619.47;5028934;28;20036;-72
2023/05/06 01:58:48;;;;;;;8.30;5.50;;;;;;;9.51;100.00;101616.97;5028804;28;20055;-72
2023/05/06 02:01:13;;;;;;;10.43;6.35;;;;;;;9.50;100.00;101619.63;5028080;28;20033;-72
2023/05/06 02:03:39;;;;;;;7.45;5.82;;;;;;;9.47;100.00;101615.31;5028949;28;21238;-72
2023/05/06 02:06:04;;;;;;;8.35;6.07;;;;;;;9.45;100.00;101621.53;5028227;28;20120;-73
2023/05/06 02:08:30;;;;;;;9.70;5.85;;;;;;;9.42;100.00;101621.63;5029190;28;20040;-72
2023/05/06 02:10:55;;;;;;;7.05;5.07;;;;;;;9.41;100.00;101630.47;5026726;28;20124;-72
2023/05/06 02:13:21;;;;;;;8.02;5.32;;;;;;;9.38;100.00;101628.78;5028535;28;20088;-72
2023/05/06 02:15:51;;;;;;;8.75;5.50;;;;;;;9.35;100.00;101631.50;5028416;28;20129;-72
2023/05/06 02:18:17;;;;;;;8.43;5.57;;;;;;;9.33;100.00;101628.88;5044482;28;20041;-72
2023/05/06 02:20:43;;;;;;;8.93;5.70;;;;;;;9.29;100.00;101629.03;5028203;28;20044;-72
2023/05/06 02:23:08;;;;;;;8.75;5.80;;;;;;;9.23;100.00;101625.66;5010461;28;20033;-72
2023/05/06 02:25:34;;;;;;;11.60;6.20;;;;;;;9.20;100.00;101623.09;5027239;28;20033;-73
2023/05/06 02:27:59;;;;;;;10.60;6.00;;;;;;;9.19;100.00;101629.28;5026501;28;20110;-72
2023/05/06 02:30:25;;;;;;;9.25;6.30;;;;;;;9.17;100.00;101623.19;5025696;28;20615;-72
2023/05/06 02:32:50;;;;;;;9.23;6.10;;;;;;;9.18;100.00;101624.03;5026862;28;20040;-72
2023/05/06 02:35:16;;;;;;;8.57;6.40;;;;;;;9.16;100.00;101636.44;5026598;28;20043;-71
2023/05/06 02:37:41;;;;;;;7.97;5.30;;;;;;;9.14;100.00;101638.25;5027095;28;20039;-71
2023/05/06 02:40:07;;;;;;;8.90;6.05;;;;;;;9.09;100.00;101626.03;5027465;28;20049;-72
2023/05/06 02:42:34;;;;;;;7.45;5.57;;;;;;;9.08;100.00;101640.13;5028295;28;20036;-71
2023/05/06 02:45:00;;;;;;;9.68;5.85;;;;;;;9.04;100.00;101627.91;5024273;28;20542;-72
2023/05/06 02:47:25;;;;;;;9.50;6.20;;;;;;;9.03;100.00;101628.81;5027682;28;20033;-72
2023/05/06 02:49:51;;;;;;;12.85;6.25;;;;;;;9.04;100.00;101633.19;5025705;28;20500;-72
2023/05/06 02:52:17;;;;;;;10.95;6.47;;;;;;;9.04;100.00;101630.56;5027729;28;20059;-72
2023/05/06 02:54:42;;;;;;;10.82;7.05;;;;;;;9.05;100.00;101618.22;5028517;28;20075;-72
2023/05/06 02:57:08;;;;;;;10.60;6.82;;;;;;;9.07;100.00;101621.69;5027750;28;20037;-72
2023/05/06 02:59:34;;;;;;;10.15;6.20;;;;;;;9.08;100.00;101615.47;5020188;28;20040;-71
2023/05/06 03:02:00;;;;;;;9.23;6.32;;;;;;;9.06;100.00;101610.22;5026794;28;20483;-72
2023/05/06 03:04:25;;;;;;;9.68;6.20;;;;;;;9.07;100.00;101612.00;5027289;28;20052;-71
2023/05/06 03:06:50;;;;;;;10.32;6.32;;;;;;;9.07;100.00;101600.53;5027448;28;20100;-71
2023/05/06 03:09:16;;;;;;;11.02;7.00;;;;;;;9.07;100.00;101605.81;5026794;28;20037;-71
2023/05/06 03:11:42;;;;;;;11.38;7.05;;;;;;;9.06;100.00;101607.59;5025044;28;20045;-73
2023/05/06 03:14:08;;;;;;;12.75;6.82;;;;;;;9.04;100.00;101609.41;5026802;28;20120;-72
2023/05/06 03:16:34;;;;;;;10.65;7.07;;;;;;;9.03;100.00;101610.31;5027988;28;20480;-72
2023/05/06 03:19:00;;;;;;;12.38;7.35;;;;;;;9.00;100.00;101615.72;5027604;28;20037;-72
2023/05/06 03:21:26;;;;;;;9.90;6.43;;;;;;;9.00;100.00;101615.72;4993788;28;21745;-72
2023/05/06 03:23:51;;;;;;;11.65;6.90;;;;;;;8.98;100.00;101604.28;5027513;28;20108;-72
2023/05/06 03:26:17;;;;;;;13.30;7.18;;;;;;;8.96;100.00;101608.75;5024690;28;20045;-72
2023/05/06 03:28:43;;;;;;;11.00;6.63;;;;;;;8.90;100.00;101601.88;5025273;28;20049;-72
2023/05/06 03:31:09;;;;;;;10.65;7.30;;;;;;;8.88;100.00;101622.16;5026067;28;20049;-72
2023/05/06 03:33:34;;;;;;;10.35;6.68;;;;;;;8.90;100.00;101614.19;5024285;28;20033;-72
2023/05/06 03:36:00;;;;;;;9.02;6.28;;;;;;;8.89;100.00;101623.03;5026249;28;20032;-72
2023/05/06 03:38:25;;;;;;;10.60;6.60;;;;;;;8.92;100.00;101610.63;5018844;28;20447;-73
2023/05/06 03:40:52;;;;;;;9.63;6.82;;;;;;;8.94;100.00;101615.88;5025774;28;20037;-72
2023/05/06 03:43:17;;;;;;;8.45;6.50;;;;;;;8.95;100.00;101612.31;5024688;28;20029;-70
2023/05/06 03:45:43;;;;;;;9.77;6.57;;;;;;;8.96;100.00;101619.31;5009281;28;20053;-71
2023/05/06 03:48:08;;;;;;;8.65;6.47;;;;;;;8.98;100.00;101616.66;5026258;28;20061;-70
2023/05/06 03:50:34;;;;;;;10.43;6.88;;;;;;;9.01;100.00;101619.19;5025786;28;20029;-71
2023/05/06 03:52:59;;;;;;;12.48;7.05;;;;;;;9.02;100.00;101613.00;5026891;28;20048;-71
2023/05/06 03:55:25;;;;;;;12.70;7.97;;;;;;;9.04;100.00;101614.69;5026495;28;20036;-71
2023/05/06 03:57:50;;;;;;;12.43;7.95;;;;;;;9.08;100.00;101618.13;5025421;28;20049;-71
2023/05/06 04:00:16;;;;;;;13.82;8.98;;;;;;;9.12;100.00;101622.44;5008584;28;20134;-72
2023/05/06 04:02:42;;;;;;;14.77;8.57;;;;;;;9.16;100.00;101631.13;5027080;28;20076;-72
2023/05/06 04:05:08;;;;;;;15.68;8.65;;;;;;;9.21;100.00;101623.97;5026447;28;20037;-72
2023/05/06 04:07:33;;;;;;;16.67;9.38;;;;;;;9.23;100.00;101620.38;5024654;28;20155;-71
2023/05/06 04:09:59;;;;;;;15.00;9.20;;;;;;;9.24;100.00;101629.16;5026443;28;20045;-72
2023/05/06 04:12:24;;;;;;;15.25;9.05;;;;;;;9.28;100.00;101635.22;5026728;28;20040;-71
2023/05/06 04:14:50;;;;;;;15.95;9.32;;;;;;;9.29;100.00;101640.47;5027105;28;20123;-71
2023/05/06 04:17:15;;;;;;;18.67;9.30;;;;;;;9.33;100.00;101655.31;5026071;28;20037;-71
2023/05/06 04:19:41;;;;;;;15.73;9.38;;;;;;;9.34;100.00;101651.78;5025129;28;20037;-71
2023/05/06 04:22:07;;;;;;;16.20;9.13;;;;;;;9.34;100.00;101651.78;5019982;28;20029;-72
2023/05/06 04:24:33;;;;;;;19.90;9.13;;;;;;;9.33;100.00;101650.03;5025127;28;20549;-72
2023/05/06 04:26:58;;;;;;;14.38;9.65;;;;;;;9.33;100.00;101644.75;5024585;28;20033;-72
2023/05/06 04:29:25;;;;;;;17.50;9.77;;;;;;;9.35;100.00;101658.81;5026335;28;20272;-72
2023/05/06 04:31:52;;;;;;;16.98;9.07;;;;;;;9.38;100.00;101650.78;5026020;28;20040;-72
2023/05/06 04:34:18;;;;;;;18.40;10.05;;;;;;;9.40;100.00;101648.09;5022614;28;20048;-72
2023/05/06 04:36:44;;;;;;;17.05;10.93;;;;;;;9.43;100.00;101640.06;5026772;28;20279;-72
2023/05/06 04:39:10;;;;;;;18.40;10.13;;;;;;;9.48;100.00;101647.91;5025990;28;20041;-72
2023/05/06 04:41:36;;;;;;;21.70;11.30;;;;;;;9.52;100.00;101646.88;5021933;28;21304;-72
2023/05/06 04:44:02;;;;;;;26.92;11.40;;;;;;;9.58;100.00;101653.78;5025481;28;20157;-72
2023/05/06 04:46:28;;;;;;;21.73;11.00;;;;;;;9.63;100.00;101654.50;5026379;28;20183;-72
2023/05/06 04:48:54;;;;;;;21.88;11.50;;;;;;;9.67;100.00;101658.81;5027396;28;20488;-72
2023/05/06 04:51:19;;;;;;;25.70;11.90;;;;;;;9.72;100.00;101656.03;5027207;28;20078;-72
2023/05/06 04:53:45;;;;;;;26.05;12.20;;;;;;;9.76;100.00;101662.97;5007545;28;20045;-72
2023/05/06 04:56:11;;;;;;;26.77;12.45;;;;;;;9.79;100.00;101657.56;5029288;28;20037;-71
2023/05/06 04:58:36;;;;;;;23.30;12.45;;;;;;;9.83;100.00;101658.34;5011116;28;20047;-72
2023/05/06 05:01:03;;;;;;;26.35;13.23;;;;;;;9.85;100.00;101665.34;5030223;28;20532;-72
2023/05/06 05:03:29;;;;;;;29.10;12.93;;;;;;;9.88;100.00;101662.63;5009412;28;20078;-72
2023/05/06 05:05:54;;;;;;;24.05;12.50;;;;;;;9.90;100.00;101660.78;5030062;28;20054;-72
2023/05/06 05:08:20;;;;;;;23.85;12.80;;;;;;;9.94;100.00;101661.56;5024556;28;20040;-72
2023/05/06 05:10:46;;;;;;;25.17;12.65;;;;;;;9.97;100.00;101660.59;5042037;28;20029;-71
2023/05/06 05:13:12;;;;;;;22.58;12.30;;;;;;;9.98;100.00;101662.34;5020854;28;20041;-72
2023/05/06 05:15:38;;;;;;;23.42;11.98;;;;;;;10.01;100.00;101659.59;5028947;28;20029;-71
2023/05/06 05:18:04;;;;;;;25.67;12.30;;;;;;;10.02;100.00;101669.28;5029837;28;20029;-71
2023/05/06 05:20:30;;;;;;;24.67;12.88;;;;;;;10.03;100.00;101665.72;5030215;28;20044;-73
2023/05/06 05:22:56;;;;;;;25.98;13.45;;;;;;;10.03;100.00;101666.56;5029571;28;20048;-72
2023/05/06 05:25:21;;;;;;;25.58;12.65;;;;;;;10.06;100.00;101668.25;5029872;28;20151;-71
2023/05/06 05:27:47;;;;;;;23.42;12.18;;;;;;;10.10;100.00;101671.66;5026291;28;20029;-71
2023/05/06 05:30:13;;;;;;;25.33;12.27;;;;;;;10.11;100.00;101676.94;5029118;28;20040;-71
2023/05/06 05:32:38;;;;;;;20.63;11.65;;;;;;;10.11;100.00;101676.94;5029243;28;20707;-72
2023/05/06 05:35:04;;;;;;;22.50;12.43;;;;;;;10.10;100.00;101677.84;5030082;28;20045;-72
2023/05/06 05:37:30;;;;;;;25.92;12.48;;;;;;;10.13;100.00;101676.88;5029480;28;20041;-72
2023/05/06 05:39:56;;;;;;;28.42;12.45;;;;;;;10.15;100.00;101670.63;5029275;28;20063;-72
2023/05/06 05:42:22;;;;;;;21.48;12.48;;;;;;;10.19;100.00;101668.78;5027276;28;21201;-72
2023/05/06 05:44:47;;;;;;;24.58;11.75;;;;;;;10.24;100.00;101672.13;5027964;28;20041;-72
2023/05/06 05:47:14;;;;;;;25.23;12.93;;;;;;;10.29;100.00;101666.66;5028742;28;20045;-72
2023/05/06 05:49:39;;;;;;;23.90;11.98;;;;;;;10.32;100.00;101672.78;5026928;28;20036;-72
2023/05/06 05:52:06;;;;;;;24.20;12.40;;;;;;;10.40;100.00;101674.31;5029219;28;20052;-72
2023/05/06 05:54:31;;;;;;;22.85;11.43;;;;;;;10.44;100.00;101671.53;5028549;28;20041;-72
2023/05/06 05:56:57;;;;;;;20.00;10.52;;;;;;;10.49;100.00;101675.81;5030065;28;20123;-72
2023/05/06 05:59:23;;;;;;;24.95;12.25;;;;;;;10.54;100.00;101673.88;5029596;28;20052;-72
2023/05/06 06:01:49;;;;;;;24.10;11.55;;;;;;;10.60;100.00;101681.63;5025867;28;20033;-72
2023/05/06 06:04:14;;;;;;;23.42;11.82;;;;;;;10.64;100.00;101682.41;5028628;28;20578;-72
2023/05/06 06:06:40;;;;;;;23.63;11.10;;;;;;;10.66;100.00;101677.91;5026654;28;20044;-72
2023/05/06 06:09:06;;;;;;;26.02;10.80;;;;;;;10.68;100.00;101674.31;5026630;28;20128;-72
2023/05/06 06:11:31;;;;;;;24.20;11.25;;;;;;;10.71;100.00;101674.22;5026279;28;20588;-72
2023/05/06 06:13:57;;;;;;;19.70;10.35;;;;;;;10.72;100.00;101673.28;5027302;28;20123;-71
2023/05/06 06:16:22;;;;;;;20.08;9.70;;;;;;;10.71;100.00;101668.03;5026014;28;20017;-71
2023/05/06 06:18:48;;;;;;;19.40;9.32;;;;;;;10.73;100.00;101672.38;5027960;28;20064;-71
2023/05/06 06:21:13;;;;;;;17.23;9.15;;;;;;;10.77;100.00;101673.13;5024676;28;20432;-72
2023/05/06 06:23:39;;;;;;;18.77;8.88;;;;;;;10.81;100.00;101680.06;5026461;28;20056;-71
2023/05/06 06:26:04;;;;;;;17.70;9.15;;;;;;;10.84;100.00;101679.97;5027232;28;20498;-72
2023/05/06 06:28:30;;;;;;;16.60;9.07;;;;;;;10.87;100.00;101673.69;5027322;28;20080;-72
2023/05/06 06:30:55;;;;;;;18.02;9.63;;;;;;;10.90;100.00;101678.88;5027596;28;20043;-72
2023/05/06 06:33:21;;;;;;;21.55;10.35;;;;;;;10.93;100.00;101677.91;5027459;28;20117;-71
2023/05/06 06:35:46;;;;;;;18.92;9.85;;;;;;;10.96;100.00;101677.81;5024628;28;21515;-72
2023/05/06 06:38:12;;;;;;;19.25;10.13;;;;;;;10.98;100.00;101679.50;5027454;28;20789;-71
2023/05/06 06:40:37;;;;;;;19.30;10.32;;;;;;;11.02;100.00;101682.91;5027889;28;20879;-71
2023/05/06 06:43:03;;;;;;;22.27;10.45;;;;;;;11.08;100.00;101687.13;5027237;28;20041;-72
2023/05/06 06:45:28;;;;;;;19.27;9.98;;;;;;;11.20;100.00;101686.72;5027210;28;20058;-71
2023/05/06 06:47:54;;;;;;;20.10;10.70;;;;;;;11.36;100.00;101694.13;5027278;28;20037;-71
2023/05/06 06:50:20;;;;;;;22.52;11.75;;;;;;;11.55;100.00;101695.22;5025894;28;20045;-71
2023/05/06 06:52:45;;;;;;;25.15;12.30;;;;;;;11.75;100.00;101698.94;5027149;28;20091;-71
2023/05/06 06:55:11;;;;;;;25.08;13.18;;;;;;;11.86;100.00;101698.53;5026889;28;20037;-72
2023/05/06 06:57:38;;;;;;;21.60;12.65;;;;;;;12.01;100.00;101693.56;5026144;28;20041;-71
2023/05/06 07:00:04;;;;;;;25.83;12.93;;;;;;;12.16;100.00;101690.34;5026943;28;20048;-72
2023/05/06 07:02:30;;;;;;;24.55;12.90;;;;;;;12.35;100.00;101692.28;5024510;28;20033;-72
2023/05/06 07:04:55;;;;;;;23.02;12.10;;;;;;;12.44;100.00;101694.59;5023472;28;20133;-72
2023/05/06 07:07:21;;;;;;;19.88;10.75;;;;;;;12.52;100.00;101688.13;5024797;28;20040;-73
2023/05/06 07:09:46;;;;;;;21.85;11.65;;;;;;;12.72;100.00;101692.59;5025481;28;20557;-73
2023/05/06 07:12:12;;;;;;;19.38;11.10;;;;;;;12.85;100.00;101696.47;5022271;28;20668;-72
2023/05/06 07:14:37;;;;;;;20.23;10.48;;;;;;;13.11;100.00;101691.88;5007605;28;20048;-71
2023/05/06 07:17:03;;;;;;;20.75;9.95;;;;;;;13.29;100.00;101684.88;5023776;28;20123;-72
2023/05/06 07:19:30;;;;;;;16.58;9.15;;;;;;;13.39;100.00;101684.47;5023933;28;20656;-73
2023/05/06 07:21:55;;;;;;;15.43;8.57;;;;;;;13.54;100.00;101681.19;5025012;28;20118;-73
2023/05/06 07:24:21;;;;;;;13.65;8.00;;;;;;;13.70;100.00;101689.34;5023740;28;21275;-73
2023/05/06 07:26:47;;;;;;;12.80;7.68;;;;;;;13.88;100.00;101686.75;5023457;28;20044;-73
2023/05/06 07:29:12;;;;;;;11.43;6.82;;;;;;;14.00;100.00;101690.66;5025663;28;20131;-73
2023/05/06 07:31:38;;;;;;;9.68;6.57;;;;;;;14.13;100.00;101689.13;5016531;28;22003;-72
2023/05/06 07:34:03;;;;;;;10.20;6.70;;;;;;;14.32;100.00;101687.41;5022769;28;20048;-72
2023/05/06 07:36:34;;;;;;;9.50;6.43;;;;;;;14.51;100.00;101696.22;5022681;28;20049;-72
2023/05/06 07:38:59;;;;;;;12.38;5.88;;;;;;;14.62;100.00;101700.19;5020887;28;20041;-72
2023/05/06 07:41:25;;;;;;;9.93;5.93;;;;;;;14.72;100.00;101693.47;5023175;28;20652;-72
2023/05/06 07:43:50;;;;;;;9.73;6.25;;;;;;;14.90;100.00;101689.06;5021353;28;20067;-75
2023/05/06 07:46:16;;;;;;;8.70;6.20;;;;;;;15.06;100.00;101701.59;5019057;28;20071;-74
2023/05/06 07:48:42;;;;;;;7.88;4.82;;;;;;;15.17;100.00;101698.38;5005208;28;20123;-76
2023/05/06 07:51:07;;;;;;;8.77;4.70;;;;;;;15.28;100.00;101701.38;5019679;28;20040;-75
2023/05/06 07:53:33;;;;;;;7.97;4.75;;;;;;;15.40;100.00;101696.31;5000183;28;20041;-71
2023/05/06 07:56:01;;;;;;;7.68;5.03;;;;;;;15.51;100.00;101701.97;5006372;28;20044;-71
2023/05/06 07:58:30;;;;;;;7.65;4.53;;;;;;;15.58;100.00;101698.03;5024172;28;20148;-71
2023/05/06 08:00:56;;;;;;;7.63;4.97;;;;;;;15.73;100.00;101701.69;5022801;28;20036;-72
2023/05/06 08:03:22;;;;;;;8.23;5.38;;;;;;;15.81;100.00;101705.75;5024957;28;20045;-71
2023/05/06 08:05:51;;;;;;;7.38;4.93;;;;;;;15.88;100.00;101708.00;5024410;28;20040;-71
2023/05/06 08:08:20;;;;;;;7.90;5.10;;;;;;;15.92;100.00;101710.53;5007771;28;20045;-72
2023/05/06 08:10:46;;;;;;;8.65;5.40;;;;;;;15.92;100.00;101708.75;5025130;28;20036;-71
2023/05/06 08:13:12;;;;;;;7.10;4.85;;;;;;;15.93;100.00;101712.25;5025655;28;20041;-71
2023/05/06 08:15:38;;;;;;;9.15;6.00;;;;;;;15.93;100.00;101714.91;5008027;28;20168;-71
2023/05/06 08:18:04;;;;;;;9.60;6.45;;;;;;;15.93;100.00;101714.91;5022310;28;20816;-72
2023/05/06 08:20:29;;;;;;;8.93;5.95;;;;;;;15.88;100.00;101715.16;5024547;28;20029;-72
2023/05/06 08:22:55;;;;;;;9.40;6.30;;;;;;;15.93;100.00;101709.59;5020914;28;20044;-71
2023/05/06 08:25:21;;;;;;;11.23;6.50;;;;;;;16.05;100.00;101706.25;5008182;28;20048;-75
2023/05/06 08:27:46;;;;;;;11.93;6.97;;;;;;;16.17;100.00;101703.84;5008790;28;20033;-74
2023/05/06 08:30:13;;;;;;;9.50;6.05;;;;;;;16.32;100.00;101708.31;5026279;28;20039;-75
2023/05/06 08:32:38;;;;;;;11.38;6.28;;;;;;;16.48;100.00;101705.66;5027531;28;20160;-75
2023/05/06 08:35:07;;;;;;;9.60;6.55;;;;;;;16.62;100.00;101702.19;5026853;28;20577;-76
2023/05/06 08:37:33;;;;;;;7.68;5.78;;;;;;;16.70;100.00;101707.09;5024276;28;20793;-75
2023/05/06 08:39:59;;;;;;;9.15;5.22;;;;;;;16.81;100.00;101702.00;5022357;28;20056;-76
2023/05/06 08:42:29;;;;;;;9.18;5.63;;;;;;;17.03;100.00;101702.56;4990925;28;20149;-76
2023/05/06 08:44:55;;;;;;;9.30;5.47;;;;;;;17.30;100.00;101710.75;5023444;28;20124;-75
2023/05/06 08:47:21;;;;;;;8.18;5.60;;;;;;;17.49;100.00;101715.00;5024611;28;20782;-75
2023/05/06 08:49:50;;;;;;;9.65;5.95;;;;;;;17.60;100.00;101712.50;5007000;28;20040;-75
2023/05/06 08:52:20;;;;;;;10.00;6.22;;;;;;;17.67;100.00;101712.13;5023772;28;20061;-74
2023/05/06 08:54:46;;;;;;;9.35;5.72;;;;;;;17.79;100.00;101708.69;5026853;28;20080;-74
2023/05/06 08:57:12;;;;;;;8.77;6.15;;;;;;;17.91;100.00;101712.41;5025687;28;20650;-74
2023/05/06 08:59:39;;;;;;;8.13;5.85;;;;;;;17.90;100.00;101708.88;5009688;28;20043;-74
2023/05/06 09:02:05;;;;;;;9.40;6.47;;;;;;;17.94;100.00;101712.22;5025122;28;20657;-76
2023/05/06 09:04:31;;;;;;;10.65;6.22;;;;;;;18.04;100.00;101705.31;5027607;28;21257;-75
2023/05/06 09:06:57;;;;;;;9.05;6.10;;;;;;;18.15;100.00;101714.53;5025070;28;20094;-76
2023/05/06 09:09:23;;;;;;;9.75;6.75;;;;;;;18.24;100.00;101713.94;5027775;28;20172;-75
2023/05/06 09:11:56;;;;;;;8.90;5.90;;;;;;;18.39;100.00;101712.09;5021353;28;20090;-74
2023/05/06 09:14:22;;;;;;;12.27;6.95;;;;;;;18.49;100.00;101715.03;5027692;28;20036;-75
2023/05/06 09:16:51;;;;;;;11.48;7.75;;;;;;;18.49;100.00;101708.78;5020218;28;20130;-75
2023/05/06 09:19:18;;;;;;;10.52;7.00;;;;;;;18.58;100.00;101708.22;5002801;28;20032;-74
2023/05/06 09:21:46;;;;;;;12.57;7.32;;;;;;;18.63;100.00;101716.78;5009184;28;20126;-74
2023/05/06 09:24:14;;;;;;;10.25;7.57;;;;;;;18.62;100.00;101715.06;5023906;28;20203;-74
2023/05/06 09:26:41;;;;;;;12.05;7.75;;;;;;;18.53;100.00;101713.84;5027049;28;20041;-75
2023/05/06 09:29:07;;;;;;;11.50;7.30;;;;;;;18.50;100.00;101716.75;5010773;28;20041;-75
2023/05/06 09:31:40;;;;;;;10.35;6.90;;;;;;;18.59;100.00;101720.66;5022406;28;20758;-76
2023/05/06 09:34:05;;;;;;;;;;;;;;;18.71;100.00;101718.97;5027748;28;20103;-76
2023/05/06 09:36:31;;;;;;;11.73;7.80;;;;;;;18.85;100.00;101723.44;5039707;28;20003;-74
2023/05/06 09:38:56;;;;;;;11.93;8.27;;;;;;;18.92;100.00;101718.50;5025780;28;20075;-75
2023/05/06 09:41:24;;;;;;;11.18;7.85;;;;;;;19.01;100.00;101715.19;5025048;28;20133;-75
2023/05/06 09:43:54;;;;;;;10.23;7.80;;;;;;;19.14;100.00;101709.88;5021511;28;20040;-75
2023/05/06 09:46:21;;;;;;;11.52;7.60;;;;;;;19.24;100.00;101699.38;5025550;28;20041;-75
2023/05/06 09:48:49;;;;;;;14.60;8.90;;;;;;;19.28;100.00;101708.91;5026907;28;20428;-70
2023/05/06 09:51:15;;;;;;;12.65;8.52;;;;;;;19.20;100.00;101712.16;5022111;28;20072;-70
2023/05/06 09:53:43;;;;;;;12.75;8.30;;;;;;;19.07;100.00;101704.06;5023013;28;20499;-71
2023/05/06 09:56:09;;;;;;;14.63;9.13;;;;;;;19.18;100.00;101699.81;5027622;28;20048;-71
2023/05/06 09:58:38;;;;;;;17.13;10.98;;;;;;;19.31;100.00;101697.13;5024072;28;20688;-72
2023/05/06 10:01:05;;;;;;;15.80;10.40;;;;;;;19.45;100.00;101704.22;5022881;28;20156;-76
2023/05/06 10:03:35;;;;;;;15.68;10.25;;;;;;;19.37;100.00;101700.25;4989119;28;20700;-77
2023/05/06 10:06:02;;;;;;;17.40;10.30;;;;;;;19.33;100.00;101700.56;5026190;28;20068;-74
2023/05/06 10:08:28;;;;;;;14.18;9.57;;;;;;;19.45;100.00;101696.16;5025848;28;20088;-75
2023/05/06 10:10:53;;;;;;;18.75;11.25;;;;;;;19.57;100.00;101694.44;5010148;28;20029;-75
2023/05/06 10:13:20;;;;;;;16.15;10.77;;;;;;;19.46;100.00;101689.81;5023156;28;20480;-74
2023/05/06 10:15:47;;;;;;;18.63;11.15;;;;;;;19.25;100.00;101695.72;5022576;28;20029;-73
2023/05/06 10:18:17;;;;;;;17.60;11.10;;;;;;;19.03;100.00;101697.22;5028123;28;20103;-73
2023/05/06 10:20:44;;;;;;;19.15;11.75;;;;;;;18.79;100.00;101688.97;5024488;28;20664;-74
2023/05/06 10:23:24;;;;;;;16.90;10.95;;;;;;;18.52;100.00;101688.00;5025440;28;20044;-74
2023/05/06 10:25:53;;;;;;;19.08;12.10;;;;;;;18.35;100.00;101688.25;5026073;28;20032;-74
2023/05/06 10:28:20;;;;;;;17.85;11.70;;;;;;;18.22;100.00;101689.06;5025126;28;20040;-75
2023/05/06 10:30:47;;;;;;;15.65;11.38;;;;;;;18.10;100.00;101685.34;5026087;28;20138;-74
2023/05/06 10:33:13;;;;;;;17.67;12.35;;;;;;;17.97;100.00;101679.03;5023792;28;20033;-75
2023/05/06 10:35:40;;;;;;;18.83;12.27;;;;;;;17.85;100.00;101688.69;5023613;28;20178;-76
2023/05/06 10:38:10;;;;;;;19.77;11.93;;;;;;;17.78;100.00;101685.53;5027016;28;20032;-77
2023/05/06 10:40:36;;;;;;;17.25;12.02;;;;;;;17.72;100.00;101681.44;5023426;28;20044;-73
2023/05/06 10:43:24;;;;;;;18.80;12.32;;;;;;;17.71;100.00;101682.38;5021904;28;20045;-72
2023/05/06 10:46:14;;;;;;;18.35;11.93;;;;;;;17.67;100.00;101686.22;5009814;28;20049;-72
2023/05/06 10:49:05;;;;;;;19.98;12.82;;;;;;;17.68;100.00;101682.59;5024118;28;20060;-72
2023/05/06 10:51:31;;;;;;;18.58;13.10;;;;;;;17.83;100.00;101682.56;5024577;28;20037;-70
2023/05/06 10:54:05;;;;;;;17.65;11.90;;;;;;;18.03;100.00;101684.84;5020177;28;20301;-73
2023/05/06 10:56:34;;;;;;;17.80;12.48;;;;;;;18.15;100.00;101679.69;5024655;28;20060;-73
2023/05/06 10:59:10;;;;;;;18.85;12.27;;;;;;;18.13;100.00;101678.91;5023785;28;20557;-72
2023/05/06 11:01:41;;;;;;;19.00;12.50;;;;;;;18.01;100.00;101675.19;5017913;28;20514;-74
2023/05/06 11:04:11;;;;;;;18.55;12.07;;;;;;;18.01;100.00;101670.69;5007494;28;20041;-73
2023/05/06 11:06:41;;;;;;;17.63;11.80;;;;;;;18.09;100.00;101678.25;5025186;28;20037;-73
2023/05/06 11:09:20;;;;;;;17.83;11.48;;;;;;;18.21;100.00;101671.25;5023382;28;20041;-73
2023/05/06 11:11:57;;;;;;;16.48;11.30;;;;;;;18.34;100.00;101674.00;5024153;28;20124;-73
2023/05/06 11:14:27;;;;;;;13.77;8.63;;;;;;;18.49;100.00;101676.63;5023034;28;20090;-73